Terminal Aerodrome Forecast
Issued by NWS Charleston, WV

Current Version | Previous Version | Graphics & Text | Print | Product List | Glossary On
Versions: 1 2 3 4 5 6 7 8 9 10 11 12 13 14 15 16 17 18 19 20 21 22 23 24 25
000
FTUS41 KRLX 310900 AAA
TAFEKN
TAF AMD
KEKN 310907Z 3109/0106 00000KT 3SM BR SCT002
      TEMPO 3110/3112 1/2SM FG VV001
     FM311200 VRB03KT 2SM BR SCT001 BKN035
     FM311500 23005KT P6SM BKN045=

USA.gov is the U.S. government's official web portal to all federal, state and local government web resources and services.